createdAt,value
2022-12-29T00:00:38.878Z,50.47
2022-12-29T00:03:22.051Z,47.70
2022-12-29T00:06:05.466Z,49.93
2022-12-29T00:08:48.640Z,49.23
2022-12-29T00:11:31.715Z,50.47
2022-12-29T00:14:34.791Z,55.97
2022-12-29T00:17:19.407Z,53.77
2022-12-29T00:20:20.231Z,61.70
2022-12-29T00:23:20.726Z,67.27
2022-12-29T00:26:22.718Z,73.93
2022-12-29T00:29:23.359Z,70.50
2022-12-29T00:32:24.408Z,67.43
2022-12-29T00:35:10.627Z,72.93
2022-12-29T00:38:13.509Z,71.63
2022-12-29T00:41:14.254Z,70.40
2022-12-29T00:44:11.267Z,70.67
2022-12-29T00:46:54.571Z,73.10
2022-12-29T00:49:37.712Z,64.63
2022-12-29T00:52:22.179Z,68.40
2022-12-29T00:55:05.741Z,65.73
2022-12-29T00:57:48.784Z,61.97
2022-12-29T01:00:31.832Z,65.40
2022-12-29T01:03:14.899Z,61.77
2022-12-29T01:05:57.962Z,67.83
2022-12-29T01:08:42.344Z,63.87
2022-12-29T01:11:24.404Z,66.50
2022-12-29T01:14:07.887Z,65.73
2022-12-29T01:16:50.999Z,68.73
2022-12-29T01:19:34.405Z,66.53
2022-12-29T01:22:17.432Z,62.77
2022-12-29T01:25:02.925Z,67.33
2022-12-29T01:27:46.083Z,63.07
2022-12-29T01:30:29.290Z,65.10
2022-12-29T01:33:12.346Z,62.57
2022-12-29T01:35:55.411Z,67.57
2022-12-29T01:38:41.013Z,69.87
2022-12-29T01:41:25.791Z,65.00
2022-12-29T01:44:49.734Z,71.50
2022-12-29T01:47:38.705Z,55.90
2022-12-29T01:50:27.658Z,59.17
2022-12-29T01:53:13.682Z,73.33
2022-12-29T01:56:01.972Z,61.47
2022-12-29T01:58:50.853Z,59.33
2022-12-29T02:01:34.077Z,49.70
2022-12-29T02:04:17.404Z,56.43
2022-12-29T02:07:06.302Z,49.60
2022-12-29T02:09:51.991Z,56.30
2022-12-29T02:12:35.631Z,53.33
2022-12-29T02:15:26.407Z,48.00
2022-12-29T02:18:23.838Z,44.67
2022-12-29T02:21:36.369Z,53.20
2022-12-29T02:24:41.337Z,52.50
2022-12-29T02:28:02.632Z,52.17
2022-12-29T02:30:55.585Z,55.00
2022-12-29T02:33:52.375Z,56.03
2022-12-29T02:36:45.723Z,57.33
2022-12-29T02:39:37.006Z,59.93
2022-12-29T02:42:26.876Z,56.60
2022-12-29T02:45:17.422Z,54.60
2022-12-29T02:48:10.239Z,52.00
2022-12-29T02:50:59.119Z,56.53
2022-12-29T02:54:00.717Z,54.97
2022-12-29T02:56:43.774Z,51.03
2022-12-29T02:59:35.608Z,50.67
2022-12-29T03:02:48.419Z,53.37
2022-12-29T03:05:52.598Z,50.00
2022-12-29T03:08:42.169Z,47.20
2022-12-29T03:11:47.313Z,48.57
2022-12-29T03:14:53.224Z,51.47
2022-12-29T03:17:43.021Z,53.60
2022-12-29T03:20:28.987Z,50.83
2022-12-29T03:23:15.961Z,48.30
2022-12-29T03:26:04.159Z,54.70
2022-12-29T03:28:52.649Z,52.10
2022-12-29T03:31:38.022Z,51.07
2022-12-29T03:34:23.892Z,58.63
2022-12-29T03:37:12.213Z,64.70
2022-12-29T03:39:56.961Z,55.13
2022-12-29T03:42:41.692Z,57.33
2022-12-29T03:45:24.961Z,51.27
2022-12-29T03:48:08.133Z,64.43
2022-12-29T03:50:51.383Z,74.33
2022-12-29T03:53:34.645Z,62.03
2022-12-29T03:56:19.585Z,67.03
2022-12-29T03:59:02.630Z,64.63
2022-12-29T04:01:45.810Z,57.77
2022-12-29T04:04:28.964Z,57.23
2022-12-29T04:07:12.072Z,65.03
2022-12-29T04:09:55.125Z,63.47
2022-12-29T04:12:39.612Z,59.57
2022-12-29T04:15:25.277Z,59.67
2022-12-29T04:18:08.531Z,59.60
2022-12-29T04:21:04.625Z,54.07
2022-12-29T04:23:47.649Z,60.07
2022-12-29T04:26:30.691Z,62.57
2022-12-29T04:29:15.204Z,58.60
2022-12-29T04:31:58.206Z,58.53
2022-12-29T04:34:41.233Z,65.00
2022-12-29T04:37:24.459Z,69.77
2022-12-29T04:40:08.927Z,67.97
2022-12-29T04:42:52.104Z,59.50
2022-12-29T04:45:36.750Z,62.53
2022-12-29T04:48:19.766Z,60.87
2022-12-29T04:51:03.016Z,69.00
2022-12-29T04:53:46.109Z,67.03
2022-12-29T04:56:29.136Z,71.63
2022-12-29T04:59:12.183Z,74.33
2022-12-29T05:01:56.754Z,96.40
2022-12-29T05:04:39.916Z,103.30
2022-12-29T05:07:23.004Z,131.57
2022-12-29T05:10:07.263Z,133.83
2022-12-29T05:12:50.752Z,125.53
2022-12-29T05:15:33.833Z,140.20
2022-12-29T05:18:18.950Z,141.33
2022-12-29T05:21:01.976Z,125.40
2022-12-29T05:23:45.047Z,99.63
2022-12-29T05:26:28.082Z,82.10
2022-12-29T05:29:11.192Z,44.63
2022-12-29T05:31:54.270Z,47.20
2022-12-29T05:34:38.702Z,42.23
2022-12-29T05:37:21.748Z,42.50
2022-12-29T05:40:05.587Z,45.93
2022-12-29T05:42:48.672Z,40.27
2022-12-29T05:45:31.698Z,44.70
2022-12-29T05:48:14.714Z,41.17
2022-12-29T05:50:59.096Z,42.03
2022-12-29T05:53:42.170Z,46.97
2022-12-29T05:56:25.480Z,43.33
2022-12-29T05:59:08.722Z,47.20
2022-12-29T06:01:52.035Z,41.43
2022-12-29T06:04:35.498Z,43.23
2022-12-29T06:07:19.985Z,46.77
2022-12-29T06:10:03.034Z,45.90
2022-12-29T06:12:46.079Z,54.27
2022-12-29T06:15:29.222Z,48.10
2022-12-29T06:18:19.370Z,47.63
2022-12-29T06:21:03.335Z,45.33
2022-12-29T06:23:47.859Z,48.03
2022-12-29T06:26:30.982Z,45.90
2022-12-29T06:29:17.826Z,49.63
2022-12-29T06:32:00.986Z,52.00
2022-12-29T06:34:45.788Z,68.23
2022-12-29T06:37:29.020Z,60.37
2022-12-29T06:40:13.899Z,60.03
2022-12-29T06:42:56.847Z,56.50
2022-12-29T06:45:41.050Z,53.47
2022-12-29T06:48:24.189Z,49.20
2022-12-29T06:51:07.233Z,53.47
2022-12-29T06:53:50.287Z,52.87
2022-12-29T06:56:34.722Z,56.07
2022-12-29T06:59:17.785Z,50.27
2022-12-29T07:02:03.293Z,52.30
2022-12-29T07:04:46.515Z,50.97
2022-12-29T07:07:29.614Z,49.50
2022-12-29T07:10:13.133Z,54.67
2022-12-29T07:12:57.613Z,47.23
2022-12-29T07:15:40.612Z,49.97
2022-12-29T07:18:23.627Z,48.23
2022-12-29T07:21:08.622Z,43.90
2022-12-29T07:23:51.707Z,54.47
2022-12-29T07:26:36.613Z,46.43
2022-12-29T07:29:21.355Z,41.20
2022-12-29T07:32:04.568Z,33.60
2022-12-29T07:34:48.570Z,41.57
2022-12-29T07:37:31.611Z,41.33
2022-12-29T07:40:15.078Z,40.50
2022-12-29T07:42:58.210Z,42.10
2022-12-29T07:45:42.688Z,40.67
2022-12-29T07:48:25.807Z,42.63
2022-12-29T07:51:08.879Z,45.33
2022-12-29T07:53:52.005Z,45.33
2022-12-29T07:56:35.354Z,45.23
2022-12-29T07:59:18.770Z,40.23
2022-12-29T08:02:04.097Z,43.00
2022-12-29T08:04:47.543Z,39.53
2022-12-29T08:07:30.623Z,39.93
2022-12-29T08:10:13.988Z,43.43
2022-12-29T08:12:57.010Z,43.30
2022-12-29T08:15:40.267Z,41.00
2022-12-29T08:18:24.752Z,39.73
2022-12-29T08:21:08.292Z,29.80
2022-12-29T08:23:51.316Z,38.20
2022-12-29T08:26:34.889Z,40.07
2022-12-29T08:29:18.037Z,41.27
2022-12-29T08:32:01.072Z,38.47
2022-12-29T08:34:45.651Z,42.63
2022-12-29T08:37:31.244Z,39.00
2022-12-29T08:40:15.064Z,38.27
2022-12-29T08:42:58.128Z,37.40
2022-12-29T08:45:41.153Z,37.73
2022-12-29T08:48:24.233Z,38.17
2022-12-29T08:51:08.901Z,39.47
2022-12-29T08:53:54.573Z,41.73
2022-12-29T08:56:37.821Z,42.97
2022-12-29T08:59:21.507Z,42.40
2022-12-29T09:02:04.640Z,38.53
2022-12-29T09:04:48.303Z,46.40
2022-12-29T09:07:32.827Z,41.30
2022-12-29T09:10:15.899Z,41.33
2022-12-29T09:12:58.946Z,39.97
2022-12-29T09:15:42.405Z,41.50
2022-12-29T09:18:25.585Z,42.33
2022-12-29T09:21:09.586Z,41.03
2022-12-29T09:23:54.095Z,50.13
2022-12-29T09:26:39.349Z,50.87
2022-12-29T09:29:26.501Z,50.90
2022-12-29T09:32:13.944Z,57.20
2022-12-29T09:35:00.398Z,56.03
2022-12-29T09:37:43.762Z,64.30
2022-12-29T09:40:31.996Z,67.00
2022-12-29T09:43:40.172Z,58.33
2022-12-29T09:46:28.022Z,57.73
2022-12-29T09:49:21.438Z,58.93
2022-12-29T09:52:12.504Z,68.50
2022-12-29T09:55:03.232Z,63.57
2022-12-29T09:57:52.947Z,61.10
2022-12-29T10:00:39.829Z,59.17
2022-12-29T10:03:26.024Z,61.53
2022-12-29T10:06:13.930Z,62.03
2022-12-29T10:09:04.197Z,58.60
2022-12-29T10:12:00.602Z,62.10
2022-12-29T10:14:59.370Z,56.17
2022-12-29T10:17:50.675Z,60.57
2022-12-29T10:20:40.414Z,54.83
2022-12-29T10:23:30.208Z,55.03
2022-12-29T10:26:16.723Z,50.03
2022-12-29T10:29:06.855Z,58.03
2022-12-29T10:31:57.281Z,59.67
2022-12-29T10:34:44.867Z,48.77
2022-12-29T10:37:36.874Z,51.10
2022-12-29T10:40:27.684Z,46.17
2022-12-29T10:43:26.248Z,58.90
2022-12-29T10:46:14.165Z,54.67
2022-12-29T10:48:58.945Z,54.90
2022-12-29T10:51:47.212Z,44.33
2022-12-29T10:54:35.251Z,51.77
2022-12-29T10:57:29.104Z,49.43
2022-12-29T11:00:16.301Z,47.83
2022-12-29T11:03:33.201Z,51.43
2022-12-29T11:06:24.326Z,57.03
2022-12-29T11:09:14.901Z,54.23
2022-12-29T11:11:58.354Z,52.67
2022-12-29T11:14:41.770Z,48.57
2022-12-29T11:17:24.846Z,49.70
2022-12-29T11:20:28.926Z,48.07
2022-12-29T11:23:26.790Z,39.63
2022-12-29T11:26:19.140Z,41.67
2022-12-29T11:29:21.260Z,34.37
2022-12-29T11:32:14.148Z,35.50
2022-12-29T11:34:58.522Z,31.20
2022-12-29T11:37:43.595Z,36.70
2022-12-29T11:40:28.551Z,34.67
2022-12-29T11:43:23.089Z,44.03
2022-12-29T11:46:08.892Z,41.70
2022-12-29T11:48:52.321Z,39.57
2022-12-29T11:51:41.626Z,41.53
2022-12-29T11:54:28.400Z,43.17
2022-12-29T11:57:17.626Z,43.63
2022-12-29T12:00:04.865Z,42.00
2022-12-29T12:02:56.814Z,52.07
2022-12-29T12:05:47.045Z,47.23
2022-12-29T12:08:38.064Z,49.70
2022-12-29T12:11:25.064Z,56.57
2022-12-29T12:14:16.330Z,51.90
2022-12-29T12:17:06.158Z,66.00
2022-12-29T12:19:56.166Z,61.67
2022-12-29T12:22:44.114Z,56.20
2022-12-29T12:25:36.776Z,56.20
2022-12-29T12:28:30.441Z,57.67
2022-12-29T12:31:28.744Z,66.03
2022-12-29T12:34:18.827Z,65.47
2022-12-29T12:37:17.439Z,69.03
2022-12-29T12:40:22.779Z,69.37
2022-12-29T12:43:25.131Z,65.27
2022-12-29T12:46:20.708Z,64.73
2022-12-29T12:49:29.889Z,69.77
2022-12-29T12:52:22.979Z,67.57
2022-12-29T12:55:20.391Z,66.37
2022-12-29T12:58:09.255Z,77.53
2022-12-29T13:01:14.794Z,72.70
2022-12-29T13:04:26.506Z,68.93
2022-12-29T13:07:22.937Z,67.33
2022-12-29T13:10:22.339Z,69.47
2022-12-29T13:13:27.888Z,67.50
2022-12-29T13:16:19.441Z,68.63
2022-12-29T13:19:10.985Z,75.73
2022-12-29T13:22:06.913Z,68.03
2022-12-29T13:25:01.392Z,68.57
2022-12-29T13:27:51.741Z,75.93
2022-12-29T13:30:41.604Z,69.13
2022-12-29T13:33:35.622Z,71.30
2022-12-29T13:36:27.138Z,72.27
2022-12-29T13:39:20.919Z,79.50
2022-12-29T13:42:07.141Z,67.83
2022-12-29T13:44:56.553Z,70.57
2022-12-29T13:47:42.734Z,75.63
2022-12-29T13:50:29.495Z,71.00
2022-12-29T13:53:21.750Z,73.47
2022-12-29T13:56:12.926Z,69.90
2022-12-29T13:59:05.616Z,66.03
2022-12-29T14:01:55.545Z,74.60
2022-12-29T14:04:58.721Z,71.23
2022-12-29T14:07:42.563Z,68.23
2022-12-29T14:10:31.601Z,70.43
2022-12-29T14:13:17.146Z,64.17
2022-12-29T14:16:02.793Z,61.13
2022-12-29T14:18:46.802Z,53.60
2022-12-29T14:21:30.911Z,76.43
2022-12-29T14:24:43.647Z,60.30
2022-12-29T14:27:55.874Z,56.17
2022-12-29T14:31:02.152Z,59.00
2022-12-29T14:34:18.120Z,61.33
2022-12-29T14:37:03.441Z,58.80
2022-12-29T14:39:47.485Z,60.43
2022-12-29T14:42:33.391Z,60.93
2022-12-29T14:45:30.143Z,58.60
2022-12-29T14:48:35.984Z,60.30
2022-12-29T14:51:31.043Z,59.23
2022-12-29T14:54:50.319Z,60.27
2022-12-29T14:57:40.008Z,62.23
2022-12-29T15:00:28.012Z,57.37
2022-12-29T15:03:19.336Z,64.20
2022-12-29T15:06:10.295Z,70.70
2022-12-29T15:08:57.961Z,70.87
2022-12-29T15:11:50.106Z,77.67
2022-12-29T15:14:37.156Z,76.57
2022-12-29T15:17:28.966Z,74.20
2022-12-29T15:20:24.188Z,67.97
2022-12-29T15:23:15.940Z,75.17
2022-12-29T15:26:00.676Z,87.93
2022-12-29T15:28:46.196Z,111.73
2022-12-29T15:31:30.823Z,129.30
2022-12-29T15:34:14.736Z,160.83
2022-12-29T15:36:58.568Z,134.67
2022-12-29T15:39:43.087Z,129.77
2022-12-29T15:42:42.103Z,95.50
2022-12-29T15:45:32.842Z,93.77
2022-12-29T15:48:22.475Z,110.90
2022-12-29T15:51:05.690Z,126.10
2022-12-29T15:53:50.809Z,135.87
2022-12-29T15:56:37.945Z,134.27
2022-12-29T15:59:29.104Z,124.77
2022-12-29T16:02:12.934Z,111.80
2022-12-29T16:08:00.771Z,122.67
2022-12-29T16:10:45.582Z,112.57
2022-12-29T16:13:39.580Z,104.13
2022-12-29T16:16:27.932Z,92.00
2022-12-29T16:19:16.052Z,114.00
2022-12-29T16:22:01.713Z,127.57
2022-12-29T16:24:45.058Z,124.23
2022-12-29T16:27:34.176Z,103.00
2022-12-29T16:30:29.356Z,92.87
2022-12-29T16:33:39.909Z,93.97
2022-12-29T16:36:34.561Z,121.90
2022-12-29T16:39:30.626Z,118.77
2022-12-29T16:42:36.792Z,138.10
2022-12-29T16:46:08.752Z,137.27
2022-12-29T16:48:58.420Z,121.53
2022-12-29T16:51:43.954Z,112.30
2022-12-29T16:54:30.791Z,109.90
2022-12-29T16:57:16.129Z,123.17
2022-12-29T17:00:02.343Z,125.30
2022-12-29T17:02:47.165Z,135.33
2022-12-29T17:05:31.892Z,134.67
2022-12-29T17:08:24.018Z,144.77
2022-12-29T17:11:21.258Z,137.37
2022-12-29T17:14:04.436Z,118.60
2022-12-29T17:16:47.738Z,109.53
2022-12-29T17:19:34.706Z,116.33
2022-12-29T17:22:21.728Z,129.90
2022-12-29T17:25:05.508Z,115.87
2022-12-29T17:27:52.496Z,123.90
2022-12-29T17:30:36.702Z,128.10
2022-12-29T17:33:21.774Z,132.27
2022-12-29T17:36:05.031Z,128.73
2022-12-29T17:38:49.544Z,133.60
2022-12-29T17:41:34.378Z,135.63
2022-12-29T17:44:19.901Z,126.30
2022-12-29T17:47:03.031Z,125.57
2022-12-29T17:49:46.725Z,160.00
2022-12-29T17:52:29.896Z,153.93
2022-12-29T17:55:19.016Z,176.20
2022-12-29T17:58:02.168Z,182.93
2022-12-29T18:00:45.480Z,211.47
2022-12-29T18:03:33.697Z,200.60
2022-12-29T18:06:17.128Z,161.27
2022-12-29T18:09:00.234Z,160.57
2022-12-29T18:11:45.580Z,153.67
2022-12-29T18:14:29.011Z,146.43
2022-12-29T18:17:13.903Z,77.50
2022-12-29T18:19:57.435Z,73.43
2022-12-29T18:22:40.490Z,76.03
2022-12-29T18:25:29.156Z,66.37
2022-12-29T18:28:13.703Z,63.73
2022-12-29T18:31:01.766Z,56.20
2022-12-29T18:33:45.467Z,66.87
2022-12-29T18:36:29.723Z,59.77
2022-12-29T18:39:13.645Z,68.93
2022-12-29T18:41:56.823Z,64.20
2022-12-29T18:44:41.352Z,64.43
2022-12-29T18:47:24.500Z,57.40
2022-12-29T18:50:08.461Z,63.90
2022-12-29T18:52:58.576Z,59.23
2022-12-29T18:55:44.779Z,65.17
2022-12-29T18:58:33.899Z,63.73
2022-12-29T19:01:23.985Z,58.77
2022-12-29T19:04:07.530Z,63.77
2022-12-29T19:06:51.425Z,60.07
2022-12-29T19:09:38.110Z,54.83
2022-12-29T19:12:25.065Z,64.20
2022-12-29T19:15:21.156Z,56.60
2022-12-29T19:18:42.360Z,59.93
2022-12-29T19:21:11.142Z,62.33
2022-12-29T19:23:54.272Z,60.70
2022-12-29T19:26:39.309Z,56.80
2022-12-29T19:29:22.407Z,55.27
2022-12-29T19:32:06.201Z,64.80
2022-12-29T19:34:50.967Z,56.70
2022-12-29T19:37:36.446Z,64.67
2022-12-29T19:40:22.615Z,62.47
2022-12-29T19:43:06.709Z,64.90
2022-12-29T19:45:51.547Z,56.50
2022-12-29T19:48:34.659Z,65.83
2022-12-29T19:51:19.615Z,68.43
2022-12-29T19:54:04.166Z,58.93
2022-12-29T19:56:48.938Z,48.10
2022-12-29T19:59:32.050Z,54.60
2022-12-29T20:02:20.205Z,45.97
2022-12-29T20:05:03.341Z,44.23
2022-12-29T20:07:48.136Z,44.27
2022-12-29T20:10:31.203Z,44.70
2022-12-29T20:13:14.322Z,46.07
2022-12-29T20:16:02.065Z,44.47
2022-12-29T20:18:45.680Z,55.40
2022-12-29T20:21:29.939Z,44.23
2022-12-29T20:24:14.780Z,46.57
2022-12-29T20:26:59.295Z,50.53
2022-12-29T20:29:44.348Z,49.67
2022-12-29T20:32:27.504Z,45.67
2022-12-29T20:35:13.058Z,47.37
2022-12-29T20:37:56.177Z,52.17
2022-12-29T20:40:46.206Z,48.87
2022-12-29T20:43:29.862Z,60.30
2022-12-29T20:46:20.241Z,55.53
2022-12-29T20:49:04.014Z,51.40
2022-12-29T20:52:05.839Z,56.73
2022-12-29T20:54:49.869Z,60.47
2022-12-29T20:57:57.029Z,67.20
2022-12-29T21:00:37.963Z,51.00
2022-12-29T21:03:21.159Z,53.70
2022-12-29T21:06:04.762Z,57.33
2022-12-29T21:08:51.047Z,61.47
2022-12-29T21:11:34.370Z,69.07
2022-12-29T21:14:19.017Z,72.00
2022-12-29T21:17:02.096Z,69.20
2022-12-29T21:19:45.230Z,78.30
2022-12-29T21:22:29.013Z,98.33
2022-12-29T21:25:12.109Z,79.87
2022-12-29T21:27:55.128Z,78.70
2022-12-29T21:30:40.484Z,68.70
2022-12-29T21:33:23.729Z,61.70
2022-12-29T21:36:08.445Z,71.33
2022-12-29T21:38:51.800Z,77.27
2022-12-29T21:41:35.186Z,67.07
2022-12-29T21:44:35.610Z,61.03
2022-12-29T21:47:21.015Z,57.73
2022-12-29T21:50:04.411Z,59.23
2022-12-29T21:52:47.549Z,57.67
2022-12-29T21:55:30.986Z,54.20
2022-12-29T21:58:31.503Z,46.53
2022-12-29T22:01:32.936Z,46.83
2022-12-29T22:04:36.278Z,50.13
2022-12-29T22:07:37.309Z,43.73
2022-12-29T22:10:38.457Z,50.43
2022-12-29T22:13:22.016Z,48.60
2022-12-29T22:16:06.100Z,49.63
2022-12-29T22:18:49.516Z,51.30
2022-12-29T22:21:34.118Z,46.70
2022-12-29T22:24:17.323Z,44.13
2022-12-29T22:27:00.490Z,52.87
2022-12-29T22:29:44.047Z,53.57
2022-12-29T22:32:27.244Z,47.70
2022-12-29T22:35:11.627Z,46.40
2022-12-29T22:37:56.148Z,42.83
2022-12-29T22:40:39.262Z,41.40
2022-12-29T22:43:22.274Z,40.23
2022-12-29T22:46:07.759Z,39.90
2022-12-29T22:48:50.990Z,81.67
2022-12-29T22:51:34.117Z,82.40
2022-12-29T22:54:19.942Z,89.87
2022-12-29T22:57:03.055Z,86.57
2022-12-29T22:59:46.283Z,86.17
2022-12-29T23:02:30.540Z,90.20
2022-12-29T23:05:14.085Z,82.50
2022-12-29T23:07:57.355Z,79.90
2022-12-29T23:10:41.791Z,75.93
2022-12-29T23:13:25.519Z,73.53
2022-12-29T23:16:09.247Z,80.47
2022-12-29T23:18:52.784Z,73.80
2022-12-29T23:21:36.068Z,71.97
2022-12-29T23:24:19.328Z,84.80
2022-12-29T23:27:03.761Z,75.80
2022-12-29T23:29:46.864Z,72.67
2022-12-29T23:32:29.947Z,77.90
2022-12-29T23:35:12.931Z,76.20
2022-12-29T23:37:56.045Z,75.57
2022-12-29T23:40:39.147Z,72.23
2022-12-29T23:43:23.609Z,74.40
2022-12-29T23:46:09.120Z,67.20
2022-12-29T23:48:52.612Z,68.87
2022-12-29T23:51:35.645Z,72.30
2022-12-29T23:54:18.864Z,81.23
2022-12-29T23:57:02.037Z,70.03
2022-12-29T23:59:46.542Z,72.77
